Time;durP1;ratioP1;P1;durP2;ratioP2;P2;SDS_P1;SDS_P2;PMS_P1;PMS_P2;Temp;Humidity;BMP_temperature;BMP_pressure;BME280_temperature;BME280_humidity;BME280_pressure;Samples;Min_cycle;Max_cycle;Signal;HPM_P1;HPM_P2
2023/05/17 00:01:22;;;;;;;;;;;;;;;30.03;74.98;101028.75;5123042;27;66598;-37
2023/05/17 00:03:55;;;;;;;;;;;;;;;30.13;75.26;101021.03;5114240;27;70200;-37
2023/05/17 00:06:26;;;;;;;;;;;;;;;30.22;74.65;101025.19;5129311;27;66551;-36
2023/05/17 00:08:57;;;;;;;;;;;;;;;30.27;74.42;101020.00;5111479;27;69692;-37
2023/05/17 00:11:30;;;;;;;;;;;;;;;30.31;74.52;101027.69;5118195;27;67169;-39
2023/05/17 00:14:01;;;;;;;;;;;;;;;30.33;75.10;101025.59;5114005;27;69782;-37
2023/05/17 00:16:31;;;;;;;;;;;;;;;30.37;76.94;101022.25;5115770;27;66708;-37
2023/05/17 00:19:02;;;;;;;;;;;;;;;30.38;77.00;101020.38;5121023;27;69823;-37
2023/05/17 00:21:32;;;;;;;;;;;;;;;30.42;77.47;101027.00;5100326;27;65894;-36
2023/05/17 00:24:03;;;;;;;;;;;;;;;30.39;78.90;101022.84;5121995;27;70895;-37
2023/05/17 00:26:33;;;;;;;;;;;;;;;30.42;79.85;101018.91;5134537;27;66265;-37
2023/05/17 00:29:03;;;;;;;;;;;;;;;30.42;78.96;101029.72;5118880;27;69932;-36
2023/05/17 00:31:34;;;;;;;;;;;;;;;30.41;78.24;101028.06;5137175;27;67256;-36
2023/05/17 00:34:04;;;;;;;;;;;;;;;30.44;77.73;101038.47;5139509;27;70062;-36
2023/05/17 00:36:34;;;;;;;;;;;;;;;30.44;77.08;101038.47;5133880;27;65862;-37
2023/05/17 00:39:04;;;;;;;;;;;;;;;30.44;77.06;101038.47;5134962;27;70641;-36
2023/05/17 00:41:35;;;;;;;;;;;;;;;30.46;76.71;101039.09;5135245;27;65957;-36
2023/05/17 00:44:05;;;;;;;;;;;;;;;30.49;76.57;101035.97;5131918;27;69054;-36
2023/05/17 00:46:36;;;;;;;;;;;;;;;30.50;76.85;101043.84;5114272;27;65735;-36
2023/05/17 00:49:06;;;;;;;;;;;;;;;30.54;76.60;101049.69;5119901;27;70141;-37
2023/05/17 00:51:36;;;;;;;;;;;;;;;30.48;75.35;101050.56;5138635;27;64679;-48
2023/05/17 00:54:07;;;;;;;;;;;;;;;30.47;74.88;101046.16;5138887;27;70665;-37
2023/05/17 00:56:37;;;;;;;;;;;;;;;30.46;74.82;101052.63;5132468;27;66170;-37
2023/05/17 00:59:08;;;;;;;;;;;;;;;30.47;74.62;101057.00;5124258;27;69199;-37
2023/05/17 01:01:40;;;;;;;;;;;;;;;30.47;74.73;101049.69;5132085;27;66390;-37
2023/05/17 01:04:12;;;;;;;;;;;;;;;30.50;74.31;101053.84;5109212;27;70356;-36
2023/05/17 01:06:44;;;;;;;;;;;;;;;30.52;74.66;101051.75;5135002;27;66116;-36
2023/05/17 01:09:15;;;;;;;;;;;;;;;30.54;73.65;101052.38;5131177;27;70428;-37
2023/05/17 01:11:55;;;;;;;;;;;;;;;30.55;73.61;101045.91;5109187;27;65222;-38
2023/05/17 01:14:29;;;;;;;;;;;;;;;30.57;73.70;101054.66;5138027;27;69841;-37
2023/05/17 01:17:12;;;;;;;;;;;;;;;30.59;72.84;101063.41;5138144;27;66030;-37
2023/05/17 01:19:54;;;;;;;;;;;;;;;30.61;72.82;101060.47;5135648;27;70146;-37
2023/05/17 01:22:24;;;;;;;;;;;;;;;30.61;72.99;101049.66;5112826;27;67192;-37
2023/05/17 01:25:01;;;;;;;;;;;;;;;30.65;72.88;101057.13;5115976;27;70574;-37
2023/05/17 01:27:32;;;;;;;;;;;;;;;30.67;72.36;101063.19;5110270;27;66836;-36
2023/05/17 01:30:03;;;;;;;;;;;;;;;30.70;72.40;101068.16;5112451;27;70077;-36
2023/05/17 01:32:34;;;;;;;;;;;;;;;30.71;72.42;101071.69;5113561;27;66100;-37
2023/05/17 01:35:05;;;;;;;;;;;;;;;30.73;72.20;101081.28;5119239;27;69925;-38
2023/05/17 01:37:35;;;;;;;;;;;;;;;30.77;72.10;101080.84;5139868;27;66398;-37
2023/05/17 01:40:07;;;;;;;;;;;;;;;30.79;71.96;101085.00;5135683;27;69247;-37
2023/05/17 01:42:40;;;;;;;;;;;;;;;30.80;71.29;101080.44;5121702;27;66480;-37
2023/05/17 01:45:22;;;;;;;;;;;;;;;30.81;71.65;101084.78;5119671;27;70272;-36
2023/05/17 01:47:55;;;;;;;;;;;;;;;30.86;71.30;101084.97;5129118;27;66619;-36
2023/05/17 01:50:27;;;;;;;;;;;;;;;30.88;71.58;101088.31;5132521;27;69358;-36
2023/05/17 01:53:00;;;;;;;;;;;;;;;30.90;70.66;101091.66;5139735;27;66480;-37
2023/05/17 01:55:30;;;;;;;;;;;;;;;30.90;70.98;101097.88;5122023;27;70407;-38
2023/05/17 01:58:02;;;;;;;;;;;;;;;30.96;70.48;101090.78;5123708;27;66717;-37
2023/05/17 02:00:33;;;;;;;;;;;;;;;30.98;70.59;101096.81;5110478;27;70160;-37
2023/05/17 02:03:04;;;;;;;;;;;;;;;31.01;70.18;101103.66;5106124;27;66750;-38
2023/05/17 02:05:34;;;;;;;;;;;;;;;31.03;70.01;101096.97;5135423;27;69755;-37
2023/05/17 02:08:06;;;;;;;;;;;;;;;31.06;69.98;101101.13;5139528;27;66620;-37
2023/05/17 02:10:36;;;;;;;;;;;;;;;31.09;70.05;101104.25;5139897;27;69286;-37
2023/05/17 02:13:06;;;;;;;;;;;;;;;31.13;70.08;101108.19;5142677;27;67215;-37
2023/05/17 02:15:37;;;;;;;;;;;;;;;31.15;70.05;101111.53;5132368;27;70433;-36
2023/05/17 02:18:07;;;;;;;;;;;;;;;31.20;69.45;101099.19;5123334;27;66769;-37
2023/05/17 02:20:38;;;;;;;;;;;;;;;31.23;69.56;101107.75;5123051;27;69421;-37
2023/05/17 02:23:08;;;;;;;;;;;;;;;31.26;69.08;101101.03;5141009;27;66494;-37
2023/05/17 02:25:38;;;;;;;;;;;;;;;31.04;68.73;101065.31;5140976;27;69657;-39
2023/05/17 02:28:09;;;;;;;;;;;;;;;31.32;68.77;101101.00;5134905;27;66661;-37
2023/05/17 02:30:43;;;;;;;;;;;;;;;31.35;68.92;101097.03;5138165;27;70550;-37
2023/05/17 02:33:14;;;;;;;;;;;;;;;31.39;68.96;101090.13;5134182;27;65472;-37
2023/05/17 02:35:45;;;;;;;;;;;;;;;31.43;68.65;101087.84;5135111;27;70350;-37
2023/05/17 02:38:15;;;;;;;;;;;;;;;31.46;68.38;101085.50;5131205;27;66692;-36
2023/05/17 02:40:45;;;;;;;;;;;;;;;31.49;68.16;101085.06;5131274;27;69523;-36
2023/05/17 02:43:15;;;;;;;;;;;;;;;31.53;68.19;101086.28;5131558;27;66549;-36
2023/05/17 02:45:46;;;;;;;;;;;;;;;31.57;67.83;101092.09;5132572;27;70105;-36
2023/05/17 02:48:16;;;;;;;;;;;;;;;31.58;68.21;101089.16;5105545;27;66683;-36
2023/05/17 02:50:46;;;;;;;;;;;;;;;31.59;67.79;101085.41;5128371;27;70657;-37
2023/05/17 02:53:17;;;;;;;;;;;;;;;31.61;67.64;101086.00;5106970;27;65932;-36
2023/05/17 02:55:48;;;;;;;;;;;;;;;31.64;67.17;101075.78;5127593;27;71371;-37
2023/05/17 02:58:18;;;;;;;;;;;;;;;31.66;67.48;101079.09;5111855;27;67187;-37
2023/05/17 03:00:49;;;;;;;;;;;;;;;31.70;67.34;101074.88;5108639;27;70497;-37
2023/05/17 03:03:19;;;;;;;;;;;;;;;31.71;67.57;101061.13;5104991;27;66928;-36
2023/05/17 03:05:50;;;;;;;;;;;;;;;31.75;67.06;101069.63;5125807;27;68707;-36
2023/05/17 03:08:22;;;;;;;;;;;;;;;31.76;67.21;101074.00;5117569;27;66265;-36
2023/05/17 03:10:53;;;;;;;;;;;;;;;31.78;67.27;101069.19;5138673;27;70416;-37
2023/05/17 03:13:23;;;;;;;;;;;;;;;31.81;66.85;101066.03;5112210;27;66106;-38
2023/05/17 03:15:53;;;;;;;;;;;;;;;31.80;66.96;101064.38;5121997;27;71095;-37
2023/05/17 03:18:24;;;;;;;;;;;;;;;31.82;66.85;101057.69;5119523;27;66970;-37
2023/05/17 03:20:55;;;;;;;;;;;;;;;31.87;66.73;101059.69;5123486;27;70127;-37
2023/05/17 03:23:26;;;;;;;;;;;;;;;31.88;66.99;101061.38;5117681;27;66838;-36
2023/05/17 03:26:01;;;;;;;;;;;;;;;31.90;66.56;101059.28;5112757;27;69058;-38
2023/05/17 03:28:36;;;;;;;;;;;;;;;31.90;66.57;101064.72;5108675;27;66578;-36
2023/05/17 03:31:07;;;;;;;;;;;;;;;31.92;66.53;101057.19;5103231;27;70409;-37
2023/05/17 03:33:38;;;;;;;;;;;;;;;31.93;66.58;101056.16;5121278;27;67009;-36
2023/05/17 03:36:08;;;;;;;;;;;;;;;31.95;66.84;101062.16;5132788;27;70488;-37
2023/05/17 03:38:39;;;;;;;;;;;;;;;31.97;66.53;101062.78;5120558;27;66049;-38
2023/05/17 03:41:09;;;;;;;;;;;;;;;31.97;66.21;101043.78;5110518;27;70624;-38
2023/05/17 03:43:41;;;;;;;;;;;;;;;31.99;66.36;101047.13;5100953;27;66900;-37
2023/05/17 03:46:13;;;;;;;;;;;;;;;32.02;66.39;101046.66;5099882;27;69982;-37
2023/05/17 03:48:44;;;;;;;;;;;;;;;32.03;66.25;101040.16;5104124;27;64918;-37
2023/05/17 03:51:14;;;;;;;;;;;;;;;32.05;66.07;101040.78;5103844;27;70015;-38
2023/05/17 03:53:45;;;;;;;;;;;;;;;32.06;66.14;101033.47;5108318;27;65660;-37
2023/05/17 03:56:16;;;;;;;;;;;;;;;32.07;66.09;101028.88;5102307;27;70395;-37
2023/05/17 03:58:47;;;;;;;;;;;;;;;32.08;66.11;101017.78;5130691;27;66181;-36
2023/05/17 04:01:19;;;;;;;;;;;;;;;32.10;66.10;101023.00;5092556;27;69600;-37
2023/05/17 04:03:49;;;;;;;;;;;;;;;32.10;66.00;101014.88;5106714;27;66923;-37
2023/05/17 04:06:21;;;;;;;;;;;;;;;32.10;65.87;101006.72;5099925;27;70795;-37
2023/05/17 04:08:54;;;;;;;;;;;;;;;32.14;65.71;100999.78;5110359;27;65331;-37
2023/05/17 04:11:26;;;;;;;;;;;;;;;32.17;65.84;100996.63;5104004;27;70067;-36
2023/05/17 04:13:57;;;;;;;;;;;;;;;32.18;65.92;100990.97;5124860;27;66389;-36
2023/05/17 04:16:27;;;;;;;;;;;;;;;32.21;65.73;100989.69;5100553;27;70276;-38
2023/05/17 04:18:59;;;;;;;;;;;;;;;32.25;65.71;100988.16;5104409;27;66355;-35
2023/05/17 04:21:30;;;;;;;;;;;;;;;32.26;65.26;100993.38;5112282;27;70910;-39
2023/05/17 04:24:01;;;;;;;;;;;;;;;32.28;65.50;100982.28;5100709;27;64952;-38
2023/05/17 04:26:32;;;;;;;;;;;;;;;32.30;65.49;100988.31;5095592;27;70127;-37
2023/05/17 04:29:03;;;;;;;;;;;;;;;32.32;65.42;100983.50;5118482;27;66300;-36
2023/05/17 04:31:33;;;;;;;;;;;;;;;32.34;65.45;100972.41;5103743;27;70912;-35
2023/05/17 04:34:04;;;;;;;;;;;;;;;32.36;65.19;100970.28;5098732;27;66578;-36
2023/05/17 04:36:35;;;;;;;;;;;;;;;32.37;65.19;100967.34;5120176;27;70779;-35
2023/05/17 04:39:06;;;;;;;;;;;;;;;32.38;65.27;100966.28;5096057;27;66849;-37
2023/05/17 04:41:38;;;;;;;;;;;;;;;32.40;64.93;100953.31;5103024;27;69953;-36
2023/05/17 04:44:11;;;;;;;;;;;;;;;32.42;64.97;100948.47;5098098;27;66367;-39
2023/05/17 04:46:43;;;;;;;;;;;;;;;32.44;65.07;100949.06;5111368;27;69172;-36
2023/05/17 04:49:14;;;;;;;;;;;;;;;32.46;65.17;100938.84;5101861;27;66015;-36
2023/05/17 04:51:45;;;;;;;;;;;;;;;32.47;64.76;100940.50;5126395;27;70907;-36
2023/05/17 04:54:15;;;;;;;;;;;;;;;32.49;64.87;100932.97;5099981;27;66049;-36
2023/05/17 04:56:46;;;;;;;;;;;;;;;32.53;64.75;100918.94;5097974;27;69225;-36
2023/05/17 04:59:26;;;;;;;;;;;;;;;32.54;64.79;100916.00;5106657;27;66476;-36
2023/05/17 05:01:57;;;;;;;;;;;;;;;32.56;64.70;100910.31;5099422;27;70814;-37
2023/05/17 05:04:27;;;;;;;;;;;;;;;32.57;64.53;100901.09;5113639;27;66830;-35
2023/05/17 05:06:58;;;;;;;;;;;;;;;32.59;64.46;100904.41;5105643;27;70017;-37
2023/05/17 05:09:29;;;;;;;;;;;;;;;32.61;64.52;100902.31;5106827;27;66188;-39
2023/05/17 05:12:00;;;;;;;;;;;;;;;32.62;64.57;100903.94;5122335;27;70345;-38
2023/05/17 05:14:31;;;;;;;;;;;;;;;32.63;64.49;100892.03;5113567;27;65621;-37
2023/05/17 05:17:03;;;;;;;;;;;;;;;32.65;64.17;100881.75;5104382;27;69446;-37
2023/05/17 05:19:34;;;;;;;;;;;;;;;32.66;64.28;100872.56;5107021;27;66385;-38
2023/05/17 05:22:06;;;;;;;;;;;;;;;32.68;64.27;100875.84;5104303;27;70023;-36
2023/05/17 05:24:37;;;;;;;;;;;;;;;32.70;64.07;100876.47;5102470;27;66735;-37
2023/05/17 05:27:08;;;;;;;;;;;;;;;32.71;63.92;100869.97;5121552;27;69702;-37
2023/05/17 05:29:38;;;;;;;;;;;;;;;32.73;63.90;100856.97;5104866;27;66731;-38
2023/05/17 05:32:09;;;;;;;;;;;;;;;32.74;63.89;100855.94;5108680;27;69954;-36
2023/05/17 05:34:45;;;;;;;;;;;;;;;32.79;63.89;100845.19;5113146;27;66192;-35
2023/05/17 05:37:18;;;;;;;;;;;;;;;32.79;63.78;100839.75;5124366;27;70148;-36
2023/05/17 05:39:48;;;;;;;;;;;;;;;32.83;63.54;100846.38;5122131;27;66478;-38
2023/05/17 05:42:19;;;;;;;;;;;;;;;32.85;63.75;100827.13;5094074;27;70075;-39
2023/05/17 05:44:50;;;;;;;;;;;;;;;32.86;63.55;100821.44;5104812;27;66718;-35
2023/05/17 05:47:21;;;;;;;;;;;;;;;32.89;63.55;100815.53;5112782;27;69950;-39
2023/05/17 05:49:52;;;;;;;;;;;;;;;32.90;63.49;100811.78;5110011;27;65006;-37
2023/05/17 05:52:22;;;;;;;;;;;;;;;32.93;63.34;100797.72;5106502;27;69295;-35
2023/05/17 05:54:53;;;;;;;;;;;;;;;32.97;63.40;100791.81;5113649;27;65187;-38
2023/05/17 05:57:23;;;;;;;;;;;;;;;32.98;63.20;100779.88;5107432;27;69834;-39
2023/05/17 05:59:55;;;;;;;;;;;;;;;33.00;63.32;100765.00;5110651;27;67065;-39
2023/05/17 06:02:25;;;;;;;;;;;;;;;33.04;62.98;100762.63;5108702;27;70125;-38
2023/05/17 06:04:56;;;;;;;;;;;;;;;33.06;63.14;100753.19;5130496;27;67077;-35
2023/05/17 06:07:26;;;;;;;;;;;;;;;33.08;63.00;100744.81;5126320;27;68227;-37
2023/05/17 06:09:57;;;;;;;;;;;;;;;33.12;62.89;100735.09;5129094;27;66079;-35
2023/05/17 06:12:28;;;;;;;;;;;;;;;33.15;62.86;100726.47;5130255;27;69911;-35
2023/05/17 06:14:58;;;;;;;;;;;;;;;33.17;62.67;100709.94;5126539;27;67006;-38
2023/05/17 06:17:29;;;;;;;;;;;;;;;33.21;62.59;100700.22;5129342;27;70260;-35
2023/05/17 06:19:59;;;;;;;;;;;;;;;33.24;62.54;100700.56;5130808;27;67186;-36
2023/05/17 06:22:30;;;;;;;;;;;;;;;33.28;62.37;100690.03;5131581;27;69374;-37
2023/05/17 06:25:00;;;;;;;;;;;;;;;33.30;62.22;100683.28;5127788;27;66393;-36
2023/05/17 06:27:32;;;;;;;;;;;;;;;33.35;62.23;100674.44;5126509;27;69048;-35
2023/05/17 06:30:05;;;;;;;;;;;;;;;33.38;62.02;100682.91;5119292;27;66531;-35
2023/05/17 06:32:35;;;;;;;;;;;;;;;33.43;62.12;100686.78;5119680;27;69751;-35
2023/05/17 06:35:07;;;;;;;;;;;;;;;33.47;61.86;100696.94;5102843;27;66698;-35
2023/05/17 06:37:37;;;;;;;;;;;;;;;33.50;61.95;100698.34;5128750;27;69551;-36
2023/05/17 06:40:09;;;;;;;;;;;;;;;33.55;61.71;100690.34;5118497;27;66657;-37
2023/05/17 06:42:44;;;;;;;;;;;;;;;33.62;61.59;100690.16;5110565;27;70711;-37
2023/05/17 06:45:15;;;;;;;;;;;;;;;33.65;61.29;100708.72;5127915;27;66007;-35
2023/05/17 06:47:45;;;;;;;;;;;;;;;33.67;61.28;100698.44;5132190;27;69823;-36
2023/05/17 06:50:16;;;;;;;;;;;;;;;33.72;61.40;100691.19;5130075;27;67595;-36
2023/05/17 06:52:46;;;;;;;;;;;;;;;33.76;60.91;100684.16;5131473;27;68901;-35
2023/05/17 06:55:16;;;;;;;;;;;;;;;33.77;60.77;100680.41;5122546;27;66884;-36
2023/05/17 06:57:46;;;;;;;;;;;;;;;33.84;60.72;100682.13;5123129;27;70262;-36
2023/05/17 07:00:17;;;;;;;;;;;;;;;33.86;60.31;100680.81;5123195;27;65724;-36
2023/05/17 07:02:47;;;;;;;;;;;;;;;33.91;60.49;100688.25;5104036;27;70119;-38
2023/05/17 07:05:18;;;;;;;;;;;;;;;33.94;60.67;100682.31;5119078;27;66046;-36
2023/05/17 07:07:49;;;;;;;;;;;;;;;33.96;60.21;100669.28;5112062;27;69167;-37
2023/05/17 07:10:19;;;;;;;;;;;;;;;33.95;60.00;100656.75;5106745;27;67581;-36
2023/05/17 07:12:50;;;;;;;;;;;;;;;34.01;60.27;100639.44;5122552;27;71082;-35
2023/05/17 07:15:20;;;;;;;;;;;;;;;34.04;59.97;100630.75;5123448;27;65523;-36
2023/05/17 07:17:51;;;;;;;;;;;;;;;34.06;60.07;100623.22;5119646;27;70468;-35
2023/05/17 07:20:21;;;;;;;;;;;;;;;34.08;59.83;100618.34;5120553;27;66373;-36
2023/05/17 07:22:52;;;;;;;;;;;;;;;34.11;59.68;100611.59;5119296;27;69797;-37
2023/05/17 07:25:22;;;;;;;;;;;;;;;34.15;59.70;100610.00;5123637;27;64549;-36
2023/05/17 07:27:52;;;;;;;;;;;;;;;34.17;59.36;100600.53;5119677;27;70754;-36
2023/05/17 07:30:22;;;;;;;;;;;;;;;34.19;59.38;100603.81;5126625;27;66122;-37
2023/05/17 07:32:55;;;;;;;;;;;;;;;34.22;59.25;100597.88;5122030;27;70294;-38
2023/05/17 07:35:28;;;;;;;;;;;;;;;34.25;59.01;100597.38;5124832;27;66929;-38
2023/05/17 07:37:59;;;;;;;;;;;;;;;34.28;59.02;100584.34;5123067;27;70106;-36
2023/05/17 07:40:31;;;;;;;;;;;;;;;34.31;58.91;100578.41;5118260;27;67696;-38
2023/05/17 07:43:03;;;;;;;;;;;;;;;34.31;58.40;100567.50;5125097;27;69241;-35
2023/05/17 07:45:33;;;;;;;;;;;;;;;34.36;58.77;100581.19;5119879;27;66388;-36
2023/05/17 07:48:03;;;;;;;;;;;;;;;34.37;58.47;100599.16;5121998;27;70378;-36
2023/05/17 07:50:33;;;;;;;;;;;;;;;34.39;58.19;100599.75;5121756;27;66673;-36
2023/05/17 07:53:03;;;;;;;;;;;;;;;34.40;58.23;100598.66;5123594;27;70683;-35
2023/05/17 07:55:33;;;;;;;;;;;;;;;34.40;58.40;100610.38;5115083;27;66849;-36
2023/05/17 07:58:04;;;;;;;;;;;;;;;34.43;58.36;100611.78;5112227;27;70625;-36
2023/05/17 08:00:34;;;;;;;;;;;;;;;34.43;58.03;100620.75;5120735;27;67032;-37
2023/05/17 08:03:04;;;;;;;;;;;;;;;34.43;58.31;100625.38;5131945;27;70462;-35
2023/05/17 08:05:35;;;;;;;;;;;;;;;34.45;58.19;100645.03;5118824;27;67518;-38
2023/05/17 08:08:05;;;;;;;;;;;;;;;34.44;58.34;100678.78;5117209;27;70748;-36
2023/05/17 08:10:36;;;;;;;;;;;;;;;34.45;58.57;100685.88;5119096;27;65857;-36
2023/05/17 08:13:07;;;;;;;;;;;;;;;34.47;58.75;100681.03;5120549;27;68938;-36
2023/05/17 08:15:37;;;;;;;;;;;;;;;34.47;59.05;100675.56;5119177;27;66380;-37
2023/05/17 08:18:07;;;;;;;;;;;;;;;34.44;58.94;100670.63;5118627;27;69618;-38
2023/05/17 08:20:37;;;;;;;;;;;;;;;34.44;58.93;100695.97;5112377;27;66305;-35
2023/05/17 08:23:08;;;;;;;;;;;;;;;34.43;59.25;100693.47;5134722;27;69256;-35
2023/05/17 08:25:41;;;;;;;;;;;;;;;34.42;59.03;100670.03;5123914;27;65732;-37
2023/05/17 08:28:11;;;;;;;;;;;;;;;34.42;59.24;100648.25;5133685;27;69712;-36
2023/05/17 08:30:41;;;;;;;;;;;;;;;34.39;59.10;100635.16;5115191;27;66402;-35
2023/05/17 08:33:12;;;;;;;;;;;;;;;34.39;59.22;100637.88;5105763;27;70520;-36
2023/05/17 08:35:45;;;;;;;;;;;;;;;34.38;59.03;100647.94;5110564;27;65877;-37
2023/05/17 08:38:15;;;;;;;;;;;;;;;34.36;59.28;100662.88;5118570;27;70198;-35
2023/05/17 08:40:55;;;;;;;;;;;;;;;34.35;59.41;100667.50;5120196;27;66362;-36
2023/05/17 08:43:25;;;;;;;;;;;;;;;34.36;59.16;100679.22;5118347;27;70099;-35
2023/05/17 08:45:56;;;;;;;;;;;;;;;34.32;59.01;100697.09;5082522;27;65739;-39
2023/05/17 08:48:29;;;;;;;;;;;;;;;34.32;59.42;100686.22;5082515;27;68953;-39
2023/05/17 08:51:00;;;;;;;;;;;;;;;34.29;59.34;100675.81;5116288;27;66636;-36
2023/05/17 08:53:31;;;;;;;;;;;;;;;34.26;59.35;100669.81;5120385;27;69730;-38
2023/05/17 08:56:03;;;;;;;;;;;;;;;34.26;59.47;100667.06;5119534;27;66676;-39
2023/05/17 08:58:38;;;;;;;;;;;;;;;34.25;59.43;100656.44;5115995;27;69707;-39
2023/05/17 09:01:25;;;;;;;;;;;;;;;34.23;59.29;100648.50;5108619;27;66720;-38
2023/05/17 09:03:59;;;;;;;;;;;;;;;34.20;59.28;100664.53;5113683;27;70621;-36
2023/05/17 09:06:31;;;;;;;;;;;;;;;34.19;59.39;100684.69;5118949;27;65671;-35
2023/05/17 09:09:08;;;;;;;;;;;;;;;34.17;59.42;100714.84;5116307;27;62580;-36
2023/05/17 09:11:38;;;;;;;;;;;;;;;34.15;59.47;100733.31;5098628;27;65698;-36
2023/05/17 09:14:09;;;;;;;;;;;;;;;34.07;60.48;100747.34;5119129;27;69981;-35
2023/05/17 09:16:39;;;;;;;;;;;;;;;33.93;61.68;100765.00;5107993;27;66808;-36
2023/05/17 09:19:13;;;;;;;;;;;;;;;33.87;62.30;100769.53;5117995;27;69153;-37
2023/05/17 09:21:47;;;;;;;;;;;;;;;33.79;62.83;100751.72;5113658;27;66422;-35
2023/05/17 09:24:28;;;;;;;;;;;;;;;33.72;62.84;100758.38;5116873;27;70771;-37
2023/05/17 09:27:02;;;;;;;;;;;;;;;33.70;63.03;100755.88;5118438;27;65465;-35
2023/05/17 09:29:32;;;;;;;;;;;;;;;33.66;63.22;100757.44;5104458;27;69218;-37
2023/05/17 09:32:16;;;;;;;;;;;;;;;33.59;63.57;100751.31;5116374;27;65749;-36
2023/05/17 09:34:47;;;;;;;;;;;;;;;33.59;63.45;100754.03;5108720;27;69827;-36
2023/05/17 09:37:18;;;;;;;;;;;;;;;33.55;64.12;100755.59;5112573;27;68002;-38
2023/05/17 09:39:48;;;;;;;;;;;;;;;33.53;63.96;100757.72;5112605;27;68836;-37
2023/05/17 09:42:25;;;;;;;;;;;;;;;33.53;63.94;100768.59;5112946;27;66625;-38
2023/05/17 09:44:58;;;;;;;;;;;;;;;33.49;64.42;100779.13;5118487;27;70093;-37
2023/05/17 09:47:30;;;;;;;;;;;;;;;33.48;64.47;100787.50;5112228;27;66896;-37
2023/05/17 09:50:04;;;;;;;;;;;;;;;33.50;64.35;100797.06;5117406;27;69037;-38
2023/05/17 09:52:35;;;;;;;;;;;;;;;33.43;65.04;100800.97;5117104;27;66944;-37
2023/05/17 09:55:06;;;;;;;;;;;;;;;33.45;64.52;100804.31;5108222;27;69130;-35
2023/05/17 09:57:37;;;;;;;;;;;;;;;33.44;65.08;100811.63;5132415;27;66741;-36
2023/05/17 10:00:10;;;;;;;;;;;;;;;33.40;65.00;100817.78;5125585;27;70391;-39
2023/05/17 10:02:42;;;;;;;;;;;;;;;33.38;65.36;100832.47;5127934;27;65703;-40
2023/05/17 10:05:14;;;;;;;;;;;;;;;33.37;65.28;100814.47;5128015;27;69979;-39
2023/05/17 10:07:45;;;;;;;;;;;;;;;33.35;65.27;100816.63;5127923;27;66015;-38
2023/05/17 10:10:16;;;;;;;;;;;;;;;33.35;66.34;100811.19;5121437;27;70340;-37
2023/05/17 10:12:49;;;;;;;;;;;;;;;33.33;66.15;100812.50;5114208;27;66228;-36
2023/05/17 10:15:20;;;;;;;;;;;;;;;33.32;66.27;100800.78;5129501;27;69057;-35
2023/05/17 10:17:51;;;;;;;;;;;;;;;33.34;66.70;100801.34;5134296;27;66952;-38
2023/05/17 10:20:24;;;;;;;;;;;;;;;33.36;66.99;100801.13;5123318;27;70571;-37
2023/05/17 10:22:55;;;;;;;;;;;;;;;33.32;67.49;100803.50;5135859;27;65368;-36
2023/05/17 10:25:26;;;;;;;;;;;;;;;33.32;67.39;100798.06;5128826;27;69827;-39
2023/05/17 10:27:58;;;;;;;;;;;;;;;33.32;67.44;100803.50;5117081;27;66498;-36
2023/05/17 10:30:28;;;;;;;;;;;;;;;33.32;67.40;100798.06;5127111;27;70445;-39
2023/05/17 10:32:59;;;;;;;;;;;;;;;33.33;67.67;100805.16;5126937;27;65787;-38
2023/05/17 10:35:31;;;;;;;;;;;;;;;33.33;67.81;100807.88;5130476;27;69929;-39
2023/05/17 10:38:02;;;;;;;;;;;;;;;33.30;68.51;100807.53;5096480;27;66100;-37
2023/05/17 10:40:34;;;;;;;;;;;;;;;33.30;67.87;100802.91;5124189;27;69907;-38
2023/05/17 10:43:07;;;;;;;;;;;;;;;33.35;67.53;100819.34;5127386;27;66041;-37
2023/05/17 10:45:38;;;;;;;;;;;;;;;33.39;67.16;100827.84;5137089;27;69992;-38
2023/05/17 10:48:09;;;;;;;;;;;;;;;33.40;67.02;100818.59;5130926;27;68287;-40
2023/05/17 10:50:39;;;;;;;;;;;;;;;33.23;66.86;100799.47;5128912;27;69249;-36
2023/05/17 10:53:28;;;;;;;;;;;;;;;33.36;68.40;100828.31;5131496;27;66112;-38
2023/05/17 10:55:59;;;;;;;;;;;;;;;33.33;69.43;100845.94;5133006;27;69080;-38
2023/05/17 10:58:30;;;;;;;;;;;;;;;33.28;69.44;100840.38;5126850;27;67302;-39
2023/05/17 11:01:00;;;;;;;;;;;;;;;33.26;70.14;100839.78;5123342;27;69729;-39
2023/05/17 11:03:33;;;;;;;;;;;;;;;33.23;70.76;100832.09;5132993;27;65685;-38
2023/05/17 11:06:20;;;;;;;;;;;;;;;33.17;70.56;100835.78;5125477;27;69499;-39
2023/05/17 11:09:07;;;;;;;;;;;;;;;33.15;70.64;100837.91;5129048;27;66915;-40
2023/05/17 11:11:57;;;;;;;;;;;;;;;33.15;70.51;100837.91;5127333;27;70622;-41
2023/05/17 11:14:42;;;;;;;;;;;;;;;33.09;70.79;100849.72;5114850;27;67341;-40
2023/05/17 11:17:17;;;;;;;;;;;;;;;33.08;70.92;100848.91;5129635;27;70073;-41
2023/05/17 11:19:53;;;;;;;;;;;;;;;33.07;70.72;100857.28;5124853;27;65546;-40
2023/05/17 11:22:25;;;;;;;;;;;;;;;33.06;71.26;100861.06;5136598;27;69218;-40
2023/05/17 11:24:56;;;;;;;;;;;;;;;33.04;71.30;100865.91;5127191;27;66016;-39
2023/05/17 11:27:28;;;;;;;;;;;;;;;33.07;71.79;100873.59;5125824;27;69124;-38
2023/05/17 11:30:06;;;;;;;;;;;;;;;33.05;72.19;100882.00;5125153;27;65765;-41
2023/05/17 11:32:36;;;;;;;;;;;;;;;33.04;72.04;100879.50;5128241;27;70546;-39
2023/05/17 11:35:11;;;;;;;;;;;;;;;33.04;72.26;100890.34;5112234;27;66507;-41
2023/05/17 11:37:42;;;;;;;;;;;;;;;33.00;72.54;100894.63;5131416;27;70342;-40
2023/05/17 11:40:14;;;;;;;;;;;;;;;33.00;72.52;100891.91;5115777;27;66060;-41
2023/05/17 11:42:49;;;;;;;;;;;;;;;32.99;72.78;100903.78;5124313;27;70023;-41
2023/05/17 11:45:19;;;;;;;;;;;;;;;33.02;72.66;100903.38;5129438;27;65105;-37
2023/05/17 11:47:52;;;;;;;;;;;;;;;32.98;72.59;100894.00;5122725;27;70519;-42
2023/05/17 11:50:24;;;;;;;;;;;;;;;32.99;72.40;100898.34;5126834;27;66275;-39
2023/05/17 11:52:57;;;;;;;;;;;;;;;32.99;73.00;100903.78;5108097;27;69752;-38
2023/05/17 11:55:27;;;;;;;;;;;;;;;32.98;72.74;100913.00;5128142;27;66971;-41
2023/05/17 11:57:58;;;;;;;;;;;;;;;32.96;72.69;100906.97;5124426;27;69710;-40
2023/05/17 12:00:28;;;;;;;;;;;;;;;32.97;72.38;100900.50;5121821;27;66346;-38
2023/05/17 12:03:13;;;;;;;;;;;;;;;32.97;72.55;100900.50;5122307;27;69785;-38
2023/05/17 12:05:45;;;;;;;;;;;;;;;32.95;72.22;100892.56;5131058;27;66699;-40
2023/05/17 12:08:16;;;;;;;;;;;;;;;32.67;71.95;100847.06;5127795;27;70498;-38
2023/05/17 12:10:50;;;;;;;;;;;;;;;32.94;71.37;100890.91;5121034;27;65861;-38
2023/05/17 12:13:21;;;;;;;;;;;;;;;32.94;71.52;100897.19;5123603;27;69873;-38
2023/05/17 12:16:04;;;;;;;;;;;;;;;32.96;71.04;100893.38;5128650;27;65923;-39
2023/05/17 12:18:38;;;;;;;;;;;;;;;32.96;70.32;100894.25;5115382;27;70437;-40
2023/05/17 12:21:10;;;;;;;;;;;;;;;32.98;70.18;100891.28;5116706;27;66368;-38
2023/05/17 12:23:45;;;;;;;;;;;;;;;32.99;69.98;100898.34;5125264;27;68309;-39
2023/05/17 12:26:20;;;;;;;;;;;;;;;33.00;69.63;100913.66;5129275;27;66163;-39
2023/05/17 12:28:57;;;;;;;;;;;;;;;33.00;69.33;100908.22;5118424;27;69762;-39
2023/05/17 12:31:35;;;;;;;;;;;;;;;33.00;69.30;100910.94;5118154;27;64492;-39
2023/05/17 12:34:06;;;;;;;;;;;;;;;33.00;68.99;100905.50;5128055;27;69107;-38
2023/05/17 12:36:37;;;;;;;;;;;;;;;32.98;69.40;100913.00;5128270;27;67102;-38
2023/05/17 12:39:08;;;;;;;;;;;;;;;32.98;68.86;100916.56;5121591;27;69916;-41
2023/05/17 12:41:40;;;;;;;;;;;;;;;32.99;68.67;100909.22;5108022;27;66613;-38
2023/05/17 12:44:14;;;;;;;;;;;;;;;32.97;68.76;100911.38;5130845;27;70023;-40
2023/05/17 12:46:49;;;;;;;;;;;;;;;32.97;68.68;100919.53;5125524;27;66097;-38
2023/05/17 12:49:23;;;;;;;;;;;;;;;32.96;68.41;100913.25;5127227;27;70579;-37
2023/05/17 12:51:53;;;;;;;;;;;;;;;32.94;68.32;100918.91;5130252;27;65783;-38
2023/05/17 12:54:25;;;;;;;;;;;;;;;32.94;68.25;100928.97;5114974;27;69826;-38
2023/05/17 12:56:56;;;;;;;;;;;;;;;32.94;68.19;100929.78;5133814;27;64987;-35
2023/05/17 12:59:27;;;;;;;;;;;;;;;32.93;68.30;100930.84;5103778;27;70488;-37